Terminal Aerodrome Forecast
Issued by NWS Kansas City/Pleasant Hill, MO

Home | Current Version | Previous Version | Text Only | Print | Product List | Glossary On
Versions: 1 2 3 4 5 6 7 8 9 10 11 12 13 14
000
FTUS43 KEAX 162300
TAFMCI
TAF
KMCI 162329Z 1700/1724 20018G27KT P6SM BKN200
     FM170200 24010KT P6SM SCT080
     FM170330 33013KT P6SM BKN080
     FM170700 34010KT P6SM BKN150
     FM171800 03008KT P6SM BKN070=

USA.gov is the U.S. government's official web portal to all federal, state and local government web resources and services.